Huvudsida
METAR-TAF:

METAR-TAF

Flygplatser :

Prince Said Ibrahim International Airport

Moroni, Komorerna

latitud: 11-32S, longitud: 043-16E, höjd: 29 m

Aktuellt väderrapport

Denna rapport gjordes för 7 timmar och 24 minuter sedan, klockan 18:00 UTC
Vind 5 kt från syd, varierande mellan syd/sydost och väst/sydväst
Temperatur 27°C
Fuktighet 66%
Tryck 1016 hPa
Sikt 10 km eller mer
Få moln på en höjd av 2000 ft

METAR: FMCH 221800Z 18005KT 150V240 9999 FEW020 27/20 Q1016 NOSIG

Tid: 04:24 (01:24 UTC)

Väderprognos

Denna rapport gjordes för 8 timmar och 24 minuter sedan, klockan 17:00 UTC
Prognos gäller från 22 kl. 18 UTC till 23 kl. 24 UTC
Vind 5 kt från sydost
Sikt 10 km eller mer
Få moln på en höjd av 2000 ft
Blir
från 23 kl. 05 UTC till 23 kl. 07 UTC
Vind 12 kt från väst/sydväst
Blir
från 23 kl. 16 UTC till 23 kl. 18 UTC
Vind 2 kt från ost

TAF: FMCH 221700Z 2218/2324 14005KT 9999 FEW020 BECMG 2305/2307 24012KT BECMG 2316/2318 10002KT

Aktuella väderrapporter och prognoser från 4000 flygplatser (METAR- och TAF-rapporter).

De tillgängliga stationerna syns som gula och röda prickar på kartan.

För musen över prickarna för att se namnen på stationerna.

Klicka sedan för att få väderrapporter och prognoser.

För att ändra kartan: Klicka på de gröna knapparna med ett svart kors på för att zooma in; den gröna knappen med ett streck på för att zooma ut; eller på de gröna pilarna för angränsande kartor.


METAR-TAF: